sensor_id;sensor_type;location;lat;lon;timestamp;P1;durP1;ratioP1;P2;durP2;ratioP2
3293;SDS011;1659;51.470;6.770;2022-11-20T00:01:28;43.10;;;23.23;;
3293;SDS011;1659;51.470;6.770;2022-11-20T00:03:56;54.00;;;25.43;;
3293;SDS011;1659;51.470;6.770;2022-11-20T00:06:24;49.83;;;24.37;;
3293;SDS011;1659;51.470;6.770;2022-11-20T00:08:53;52.60;;;25.70;;
3293;SDS011;1659;51.470;6.770;2022-11-20T00:11:21;47.30;;;26.20;;
3293;SDS011;1659;51.470;6.770;2022-11-20T00:13:50;50.37;;;27.10;;
3293;SDS011;1659;51.470;6.770;2022-11-20T00:16:21;53.87;;;27.30;;
3293;SDS011;1659;51.470;6.770;2022-11-20T00:18:49;52.90;;;28.70;;
3293;SDS011;1659;51.470;6.770;2022-11-20T00:21:17;58.10;;;31.60;;
3293;SDS011;1659;51.470;6.770;2022-11-20T00:23:45;69.03;;;33.87;;
3293;SDS011;1659;51.470;6.770;2022-11-20T00:26:12;58.47;;;33.80;;
3293;SDS011;1659;51.470;6.770;2022-11-20T00:28:41;66.83;;;37.00;;
3293;SDS011;1659;51.470;6.770;2022-11-20T00:31:09;62.03;;;33.60;;
3293;SDS011;1659;51.470;6.770;2022-11-20T00:33:40;60.53;;;35.07;;
3293;SDS011;1659;51.470;6.770;2022-11-20T00:36:08;67.13;;;38.53;;
3293;SDS011;1659;51.470;6.770;2022-11-20T00:38:36;70.40;;;36.27;;
3293;SDS011;1659;51.470;6.770;2022-11-20T00:41:03;74.57;;;37.43;;
3293;SDS011;1659;51.470;6.770;2022-11-20T00:43:32;71.57;;;37.80;;
3293;SDS011;1659;51.470;6.770;2022-11-20T00:45:59;70.87;;;36.20;;
3293;SDS011;1659;51.470;6.770;2022-11-20T00:48:26;68.40;;;36.53;;
3293;SDS011;1659;51.470;6.770;2022-11-20T00:50:55;65.13;;;35.60;;
3293;SDS011;1659;51.470;6.770;2022-11-20T00:53:22;60.60;;;35.17;;
3293;SDS011;1659;51.470;6.770;2022-11-20T00:55:52;73.77;;;36.27;;
3293;SDS011;1659;51.470;6.770;2022-11-20T00:58:20;60.53;;;33.40;;
3293;SDS011;1659;51.470;6.770;2022-11-20T01:00:46;61.50;;;33.63;;
3293;SDS011;1659;51.470;6.770;2022-11-20T01:03:14;69.03;;;32.73;;
3293;SDS011;1659;51.470;6.770;2022-11-20T01:05:41;61.07;;;31.93;;
3293;SDS011;1659;51.470;6.770;2022-11-20T01:08:09;61.80;;;33.10;;
3293;SDS011;1659;51.470;6.770;2022-11-20T01:10:35;76.63;;;39.23;;
3293;SDS011;1659;51.470;6.770;2022-11-20T01:13:02;84.40;;;45.77;;
3293;SDS011;1659;51.470;6.770;2022-11-20T01:15:46;87.70;;;48.90;;
3293;SDS011;1659;51.470;6.770;2022-11-20T01:18:12;94.77;;;49.93;;
3293;SDS011;1659;51.470;6.770;2022-11-20T01:20:39;101.67;;;51.33;;
3293;SDS011;1659;51.470;6.770;2022-11-20T01:23:05;99.97;;;51.63;;
3293;SDS011;1659;51.470;6.770;2022-11-20T01:25:33;100.93;;;51.90;;
3293;SDS011;1659;51.470;6.770;2022-11-20T01:28:00;100.30;;;50.50;;
3293;SDS011;1659;51.470;6.770;2022-11-20T01:30:27;87.00;;;48.77;;
3293;SDS011;1659;51.470;6.770;2022-11-20T01:32:54;91.03;;;49.67;;
3293;SDS011;1659;51.470;6.770;2022-11-20T01:35:21;94.13;;;48.70;;
3293;SDS011;1659;51.470;6.770;2022-11-20T01:37:48;96.90;;;53.83;;
3293;SDS011;1659;51.470;6.770;2022-11-20T01:40:16;105.60;;;54.90;;
3293;SDS011;1659;51.470;6.770;2022-11-20T01:42:46;93.17;;;52.27;;
3293;SDS011;1659;51.470;6.770;2022-11-20T01:48:41;97.60;;;50.63;;
3293;SDS011;1659;51.470;6.770;2022-11-20T01:51:13;96.23;;;54.17;;
3293;SDS011;1659;51.470;6.770;2022-11-20T01:53:45;100.17;;;52.23;;
3293;SDS011;1659;51.470;6.770;2022-11-20T01:56:12;87.50;;;48.87;;
3293;SDS011;1659;51.470;6.770;2022-11-20T01:58:42;89.67;;;49.77;;
3293;SDS011;1659;51.470;6.770;2022-11-20T02:01:13;89.00;;;51.87;;
3293;SDS011;1659;51.470;6.770;2022-11-20T02:03:40;88.17;;;47.70;;
3293;SDS011;1659;51.470;6.770;2022-11-20T02:06:10;96.70;;;47.80;;
3293;SDS011;1659;51.470;6.770;2022-11-20T02:08:40;86.47;;;46.37;;
3293;SDS011;1659;51.470;6.770;2022-11-20T02:11:07;84.63;;;43.20;;
3293;SDS011;1659;51.470;6.770;2022-11-20T02:13:35;75.00;;;42.20;;
3293;SDS011;1659;51.470;6.770;2022-11-20T02:16:13;72.30;;;38.37;;
3293;SDS011;1659;51.470;6.770;2022-11-20T02:18:42;68.97;;;39.37;;
3293;SDS011;1659;51.470;6.770;2022-11-20T02:21:12;78.53;;;40.50;;
3293;SDS011;1659;51.470;6.770;2022-11-20T02:23:55;73.97;;;40.23;;
3293;SDS011;1659;51.470;6.770;2022-11-20T02:26:27;70.53;;;38.40;;
3293;SDS011;1659;51.470;6.770;2022-11-20T02:28:56;65.43;;;38.17;;
3293;SDS011;1659;51.470;6.770;2022-11-20T02:31:24;80.33;;;40.97;;
3293;SDS011;1659;51.470;6.770;2022-11-20T02:33:54;71.07;;;38.30;;
3293;SDS011;1659;51.470;6.770;2022-11-20T02:36:21;72.97;;;39.40;;
3293;SDS011;1659;51.470;6.770;2022-11-20T02:38:50;77.67;;;38.43;;
3293;SDS011;1659;51.470;6.770;2022-11-20T02:41:18;66.70;;;37.73;;
3293;SDS011;1659;51.470;6.770;2022-11-20T02:43:44;73.97;;;37.80;;
3293;SDS011;1659;51.470;6.770;2022-11-20T02:46:11;69.93;;;38.40;;
3293;SDS011;1659;51.470;6.770;2022-11-20T02:48:38;69.00;;;38.23;;
3293;SDS011;1659;51.470;6.770;2022-11-20T02:51:04;73.93;;;37.80;;
3293;SDS011;1659;51.470;6.770;2022-11-20T02:53:31;68.10;;;38.27;;
3293;SDS011;1659;51.470;6.770;2022-11-20T02:55:57;78.40;;;35.30;;
3293;SDS011;1659;51.470;6.770;2022-11-20T02:58:25;65.13;;;33.70;;
3293;SDS011;1659;51.470;6.770;2022-11-20T03:00:52;61.70;;;36.37;;
3293;SDS011;1659;51.470;6.770;2022-11-20T03:03:18;65.90;;;36.70;;
3293;SDS011;1659;51.470;6.770;2022-11-20T03:05:45;57.30;;;34.40;;
3293;SDS011;1659;51.470;6.770;2022-11-20T03:08:11;57.70;;;33.37;;
3293;SDS011;1659;51.470;6.770;2022-11-20T03:10:38;57.77;;;31.87;;
3293;SDS011;1659;51.470;6.770;2022-11-20T03:13:04;56.40;;;32.60;;
3293;SDS011;1659;51.470;6.770;2022-11-20T03:15:32;60.10;;;33.30;;
3293;SDS011;1659;51.470;6.770;2022-11-20T03:17:59;57.80;;;31.37;;
3293;SDS011;1659;51.470;6.770;2022-11-20T03:20:25;54.77;;;31.97;;
3293;SDS011;1659;51.470;6.770;2022-11-20T03:22:53;54.73;;;30.77;;
3293;SDS011;1659;51.470;6.770;2022-11-20T03:25:19;49.53;;;30.07;;
3293;SDS011;1659;51.470;6.770;2022-11-20T03:27:46;47.10;;;31.30;;
3293;SDS011;1659;51.470;6.770;2022-11-20T03:30:13;59.27;;;30.77;;
3293;SDS011;1659;51.470;6.770;2022-11-20T03:32:41;58.77;;;28.57;;
3293;SDS011;1659;51.470;6.770;2022-11-20T03:35:08;52.27;;;27.77;;
3293;SDS011;1659;51.470;6.770;2022-11-20T03:37:35;60.93;;;29.70;;
3293;SDS011;1659;51.470;6.770;2022-11-20T03:40:01;50.37;;;26.13;;
3293;SDS011;1659;51.470;6.770;2022-11-20T03:42:28;48.17;;;26.63;;
3293;SDS011;1659;51.470;6.770;2022-11-20T03:45:20;54.17;;;26.90;;
3293;SDS011;1659;51.470;6.770;2022-11-20T03:47:48;48.13;;;27.00;;
3293;SDS011;1659;51.470;6.770;2022-11-20T03:50:15;55.00;;;26.03;;
3293;SDS011;1659;51.470;6.770;2022-11-20T03:52:41;47.87;;;26.93;;
3293;SDS011;1659;51.470;6.770;2022-11-20T03:55:08;51.90;;;28.00;;
3293;SDS011;1659;51.470;6.770;2022-11-20T03:57:35;48.43;;;26.93;;
3293;SDS011;1659;51.470;6.770;2022-11-20T04:00:02;55.73;;;28.20;;
3293;SDS011;1659;51.470;6.770;2022-11-20T04:02:29;49.30;;;27.43;;
3293;SDS011;1659;51.470;6.770;2022-11-20T04:04:57;50.40;;;27.50;;
3293;SDS011;1659;51.470;6.770;2022-11-20T04:07:23;55.23;;;27.90;;
3293;SDS011;1659;51.470;6.770;2022-11-20T04:09:50;56.83;;;27.93;;
3293;SDS011;1659;51.470;6.770;2022-11-20T04:12:17;45.63;;;24.40;;
3293;SDS011;1659;51.470;6.770;2022-11-20T04:14:43;46.57;;;25.50;;
3293;SDS011;1659;51.470;6.770;2022-11-20T04:17:10;52.63;;;26.23;;
3293;SDS011;1659;51.470;6.770;2022-11-20T04:19:36;49.73;;;25.20;;
3293;SDS011;1659;51.470;6.770;2022-11-20T04:22:04;47.57;;;25.80;;
3293;SDS011;1659;51.470;6.770;2022-11-20T04:24:30;52.67;;;26.53;;
3293;SDS011;1659;51.470;6.770;2022-11-20T04:26:57;49.20;;;25.53;;
3293;SDS011;1659;51.470;6.770;2022-11-20T04:29:24;46.37;;;26.37;;
3293;SDS011;1659;51.470;6.770;2022-11-20T04:31:50;48.23;;;25.50;;
3293;SDS011;1659;51.470;6.770;2022-11-20T04:34:17;50.47;;;25.67;;
3293;SDS011;1659;51.470;6.770;2022-11-20T04:36:44;42.87;;;25.00;;
3293;SDS011;1659;51.470;6.770;2022-11-20T04:39:13;44.40;;;25.43;;
3293;SDS011;1659;51.470;6.770;2022-11-20T04:41:42;50.73;;;25.33;;
3293;SDS011;1659;51.470;6.770;2022-11-20T04:44:08;47.07;;;25.87;;
3293;SDS011;1659;51.470;6.770;2022-11-20T04:46:36;55.60;;;27.10;;
3293;SDS011;1659;51.470;6.770;2022-11-20T04:49:04;45.00;;;26.30;;
3293;SDS011;1659;51.470;6.770;2022-11-20T04:51:31;49.13;;;26.53;;
3293;SDS011;1659;51.470;6.770;2022-11-20T04:53:58;50.60;;;25.37;;
3293;SDS011;1659;51.470;6.770;2022-11-20T04:56:26;43.10;;;24.57;;
3293;SDS011;1659;51.470;6.770;2022-11-20T04:58:52;43.30;;;24.20;;
3293;SDS011;1659;51.470;6.770;2022-11-20T05:01:20;51.73;;;26.40;;
3293;SDS011;1659;51.470;6.770;2022-11-20T05:03:48;47.33;;;25.30;;
3293;SDS011;1659;51.470;6.770;2022-11-20T05:06:16;43.37;;;25.57;;
3293;SDS011;1659;51.470;6.770;2022-11-20T05:08:44;51.57;;;24.93;;
3293;SDS011;1659;51.470;6.770;2022-11-20T05:11:11;50.90;;;25.67;;
3293;SDS011;1659;51.470;6.770;2022-11-20T05:13:40;48.13;;;25.40;;
3293;SDS011;1659;51.470;6.770;2022-11-20T05:16:08;49.80;;;26.67;;
3293;SDS011;1659;51.470;6.770;2022-11-20T05:18:36;50.27;;;26.97;;
3293;SDS011;1659;51.470;6.770;2022-11-20T05:21:04;52.90;;;26.03;;
3293;SDS011;1659;51.470;6.770;2022-11-20T05:23:31;48.93;;;26.90;;
3293;SDS011;1659;51.470;6.770;2022-11-20T05:25:58;48.23;;;25.67;;
3293;SDS011;1659;51.470;6.770;2022-11-20T05:28:25;46.80;;;26.13;;
3293;SDS011;1659;51.470;6.770;2022-11-20T05:30:54;47.03;;;25.83;;
3293;SDS011;1659;51.470;6.770;2022-11-20T05:33:21;46.60;;;25.50;;
3293;SDS011;1659;51.470;6.770;2022-11-20T05:35:48;44.10;;;24.80;;
3293;SDS011;1659;51.470;6.770;2022-11-20T05:38:14;46.90;;;27.03;;
3293;SDS011;1659;51.470;6.770;2022-11-20T05:40:41;50.63;;;28.07;;
3293;SDS011;1659;51.470;6.770;2022-11-20T05:43:08;48.63;;;27.07;;
3293;SDS011;1659;51.470;6.770;2022-11-20T05:45:34;48.13;;;28.60;;
3293;SDS011;1659;51.470;6.770;2022-11-20T05:48:02;52.23;;;28.77;;
3293;SDS011;1659;51.470;6.770;2022-11-20T05:50:29;58.80;;;29.60;;
3293;SDS011;1659;51.470;6.770;2022-11-20T05:52:57;52.30;;;28.90;;
3293;SDS011;1659;51.470;6.770;2022-11-20T05:55:24;55.93;;;28.50;;
3293;SDS011;1659;51.470;6.770;2022-11-20T05:57:51;56.93;;;31.23;;
3293;SDS011;1659;51.470;6.770;2022-11-20T06:00:18;60.30;;;30.70;;
3293;SDS011;1659;51.470;6.770;2022-11-20T06:02:45;58.73;;;29.30;;
3293;SDS011;1659;51.470;6.770;2022-11-20T06:05:13;60.57;;;29.77;;
3293;SDS011;1659;51.470;6.770;2022-11-20T06:07:40;58.60;;;30.00;;
3293;SDS011;1659;51.470;6.770;2022-11-20T06:10:07;59.50;;;29.70;;
3293;SDS011;1659;51.470;6.770;2022-11-20T06:12:34;56.30;;;29.90;;
3293;SDS011;1659;51.470;6.770;2022-11-20T06:15:00;58.60;;;31.47;;
3293;SDS011;1659;51.470;6.770;2022-11-20T06:17:27;56.57;;;28.80;;
3293;SDS011;1659;51.470;6.770;2022-11-20T06:19:53;51.90;;;30.33;;
3293;SDS011;1659;51.470;6.770;2022-11-20T06:22:21;54.43;;;30.20;;
3293;SDS011;1659;51.470;6.770;2022-11-20T06:24:47;55.87;;;31.43;;
3293;SDS011;1659;51.470;6.770;2022-11-20T06:27:14;50.50;;;29.27;;
3293;SDS011;1659;51.470;6.770;2022-11-20T06:29:41;60.27;;;29.73;;
3293;SDS011;1659;51.470;6.770;2022-11-20T06:32:08;57.80;;;30.73;;
3293;SDS011;1659;51.470;6.770;2022-11-20T06:34:34;59.67;;;30.60;;
3293;SDS011;1659;51.470;6.770;2022-11-20T06:37:01;55.73;;;29.07;;
3293;SDS011;1659;51.470;6.770;2022-11-20T06:39:29;57.07;;;30.40;;
3293;SDS011;1659;51.470;6.770;2022-11-20T06:41:55;48.43;;;29.30;;
3293;SDS011;1659;51.470;6.770;2022-11-20T06:44:22;55.50;;;30.63;;
3293;SDS011;1659;51.470;6.770;2022-11-20T06:46:48;56.30;;;30.40;;
3293;SDS011;1659;51.470;6.770;2022-11-20T06:49:15;53.03;;;30.60;;
3293;SDS011;1659;51.470;6.770;2022-11-20T06:51:41;61.07;;;30.50;;
3293;SDS011;1659;51.470;6.770;2022-11-20T06:54:08;59.90;;;31.20;;
3293;SDS011;1659;51.470;6.770;2022-11-20T06:56:36;54.60;;;29.30;;
3293;SDS011;1659;51.470;6.770;2022-11-20T06:59:03;71.77;;;31.43;;
3293;SDS011;1659;51.470;6.770;2022-11-20T07:01:31;56.97;;;30.90;;
3293;SDS011;1659;51.470;6.770;2022-11-20T07:03:57;61.63;;;31.27;;
3293;SDS011;1659;51.470;6.770;2022-11-20T07:06:24;45.73;;;28.33;;
3293;SDS011;1659;51.470;6.770;2022-11-20T07:08:50;57.47;;;32.30;;
3293;SDS011;1659;51.470;6.770;2022-11-20T07:11:17;56.07;;;31.23;;
3293;SDS011;1659;51.470;6.770;2022-11-20T07:13:45;55.50;;;30.50;;
3293;SDS011;1659;51.470;6.770;2022-11-20T07:16:12;57.23;;;30.03;;
3293;SDS011;1659;51.470;6.770;2022-11-20T07:18:38;59.83;;;30.47;;
3293;SDS011;1659;51.470;6.770;2022-11-20T07:21:05;62.53;;;32.23;;
3293;SDS011;1659;51.470;6.770;2022-11-20T07:23:33;64.00;;;30.27;;
3293;SDS011;1659;51.470;6.770;2022-11-20T07:26:02;57.90;;;31.87;;
3293;SDS011;1659;51.470;6.770;2022-11-20T07:28:29;58.73;;;30.30;;
3293;SDS011;1659;51.470;6.770;2022-11-20T07:30:57;57.23;;;31.53;;
3293;SDS011;1659;51.470;6.770;2022-11-20T07:33:24;56.93;;;28.57;;
3293;SDS011;1659;51.470;6.770;2022-11-20T07:35:51;57.27;;;30.37;;
3293;SDS011;1659;51.470;6.770;2022-11-20T07:38:17;56.63;;;31.37;;
3293;SDS011;1659;51.470;6.770;2022-11-20T07:40:44;66.13;;;31.57;;
3293;SDS011;1659;51.470;6.770;2022-11-20T07:43:11;56.40;;;32.97;;
3293;SDS011;1659;51.470;6.770;2022-11-20T07:45:37;56.10;;;30.27;;
3293;SDS011;1659;51.470;6.770;2022-11-20T07:48:06;66.10;;;30.90;;
3293;SDS011;1659;51.470;6.770;2022-11-20T07:50:32;57.10;;;29.57;;
3293;SDS011;1659;51.470;6.770;2022-11-20T07:53:02;58.53;;;31.40;;
3293;SDS011;1659;51.470;6.770;2022-11-20T07:55:30;56.63;;;31.97;;
3293;SDS011;1659;51.470;6.770;2022-11-20T07:57:58;68.50;;;33.53;;
3293;SDS011;1659;51.470;6.770;2022-11-20T08:00:25;55.10;;;32.33;;
3293;SDS011;1659;51.470;6.770;2022-11-20T08:02:52;64.57;;;33.23;;
3293;SDS011;1659;51.470;6.770;2022-11-20T08:05:20;61.23;;;31.40;;
3293;SDS011;1659;51.470;6.770;2022-11-20T08:07:47;58.20;;;31.10;;
3293;SDS011;1659;51.470;6.770;2022-11-20T08:10:14;61.63;;;31.93;;
3293;SDS011;1659;51.470;6.770;2022-11-20T08:12:44;70.27;;;32.00;;
3293;SDS011;1659;51.470;6.770;2022-11-20T08:15:29;79.07;;;32.73;;
3293;SDS011;1659;51.470;6.770;2022-11-20T08:17:59;60.53;;;33.30;;
3293;SDS011;1659;51.470;6.770;2022-11-20T08:20:28;58.43;;;33.53;;
3293;SDS011;1659;51.470;6.770;2022-11-20T08:22:57;62.97;;;34.57;;
3293;SDS011;1659;51.470;6.770;2022-11-20T08:25:24;60.37;;;32.57;;
3293;SDS011;1659;51.470;6.770;2022-11-20T08:27:51;68.77;;;32.83;;
3293;SDS011;1659;51.470;6.770;2022-11-20T08:30:18;70.67;;;34.20;;
3293;SDS011;1659;51.470;6.770;2022-11-20T08:32:44;72.10;;;38.80;;
3293;SDS011;1659;51.470;6.770;2022-11-20T08:35:11;73.13;;;37.17;;
3293;SDS011;1659;51.470;6.770;2022-11-20T08:37:39;75.60;;;39.17;;
3293;SDS011;1659;51.470;6.770;2022-11-20T08:40:07;77.50;;;38.30;;
3293;SDS011;1659;51.470;6.770;2022-11-20T08:42:35;75.83;;;39.17;;
3293;SDS011;1659;51.470;6.770;2022-11-20T08:45:01;81.00;;;35.90;;
3293;SDS011;1659;51.470;6.770;2022-11-20T08:47:29;60.93;;;36.00;;
3293;SDS011;1659;51.470;6.770;2022-11-20T08:49:56;68.73;;;39.27;;
3293;SDS011;1659;51.470;6.770;2022-11-20T08:52:23;70.50;;;35.27;;
3293;SDS011;1659;51.470;6.770;2022-11-20T08:54:51;67.67;;;35.20;;
3293;SDS011;1659;51.470;6.770;2022-11-20T08:57:17;66.37;;;35.97;;
3293;SDS011;1659;51.470;6.770;2022-11-20T08:59:44;61.77;;;35.10;;
3293;SDS011;1659;51.470;6.770;2022-11-20T09:02:10;65.70;;;34.57;;
3293;SDS011;1659;51.470;6.770;2022-11-20T09:04:37;61.30;;;31.93;;
3293;SDS011;1659;51.470;6.770;2022-11-20T09:07:03;61.83;;;32.83;;
3293;SDS011;1659;51.470;6.770;2022-11-20T09:09:30;55.83;;;32.53;;
3293;SDS011;1659;51.470;6.770;2022-11-20T09:11:58;57.20;;;32.57;;
3293;SDS011;1659;51.470;6.770;2022-11-20T09:14:25;64.20;;;31.57;;
3293;SDS011;1659;51.470;6.770;2022-11-20T09:16:54;61.80;;;31.37;;
3293;SDS011;1659;51.470;6.770;2022-11-20T09:19:20;51.13;;;30.17;;
3293;SDS011;1659;51.470;6.770;2022-11-20T09:21:47;56.50;;;32.20;;
3293;SDS011;1659;51.470;6.770;2022-11-20T09:24:13;47.20;;;29.20;;
3293;SDS011;1659;51.470;6.770;2022-11-20T09:26:40;46.67;;;30.23;;
3293;SDS011;1659;51.470;6.770;2022-11-20T09:29:08;51.67;;;29.17;;
3293;SDS011;1659;51.470;6.770;2022-11-20T09:31:35;49.63;;;29.70;;
3293;SDS011;1659;51.470;6.770;2022-11-20T09:34:01;44.70;;;26.87;;
3293;SDS011;1659;51.470;6.770;2022-11-20T09:36:28;43.70;;;27.30;;
3293;SDS011;1659;51.470;6.770;2022-11-20T09:38:54;41.77;;;24.63;;
3293;SDS011;1659;51.470;6.770;2022-11-20T09:44:22;45.17;;;26.13;;
3293;SDS011;1659;51.470;6.770;2022-11-20T09:47:07;38.30;;;24.33;;
3293;SDS011;1659;51.470;6.770;2022-11-20T09:49:40;35.20;;;22.97;;
3293;SDS011;1659;51.470;6.770;2022-11-20T09:52:26;37.60;;;23.00;;
3293;SDS011;1659;51.470;6.770;2022-11-20T09:55:01;39.70;;;22.77;;
3293;SDS011;1659;51.470;6.770;2022-11-20T09:57:32;30.17;;;18.50;;
3293;SDS011;1659;51.470;6.770;2022-11-20T10:00:03;31.37;;;19.27;;
3293;SDS011;1659;51.470;6.770;2022-11-20T10:02:35;30.13;;;18.80;;
3293;SDS011;1659;51.470;6.770;2022-11-20T10:05:09;34.50;;;20.80;;
3293;SDS011;1659;51.470;6.770;2022-11-20T10:07:40;27.60;;;17.33;;
3293;SDS011;1659;51.470;6.770;2022-11-20T10:10:13;30.73;;;17.67;;
3293;SDS011;1659;51.470;6.770;2022-11-20T10:12:48;28.20;;;16.73;;
3293;SDS011;1659;51.470;6.770;2022-11-20T10:15:32;36.87;;;19.47;;
3293;SDS011;1659;51.470;6.770;2022-11-20T10:18:05;28.23;;;18.20;;
3293;SDS011;1659;51.470;6.770;2022-11-20T10:20:44;32.50;;;19.50;;
3293;SDS011;1659;51.470;6.770;2022-11-20T10:23:21;31.63;;;18.37;;
3293;SDS011;1659;51.470;6.770;2022-11-20T10:25:59;34.03;;;19.50;;
3293;SDS011;1659;51.470;6.770;2022-11-20T10:28:30;28.37;;;17.50;;
3293;SDS011;1659;51.470;6.770;2022-11-20T10:31:09;35.37;;;17.63;;
3293;SDS011;1659;51.470;6.770;2022-11-20T10:33:42;34.07;;;18.53;;
3293;SDS011;1659;51.470;6.770;2022-11-20T10:36:13;25.40;;;15.17;;
3293;SDS011;1659;51.470;6.770;2022-11-20T10:38:45;33.40;;;18.50;;
3293;SDS011;1659;51.470;6.770;2022-11-20T10:41:20;43.37;;;20.80;;
3293;SDS011;1659;51.470;6.770;2022-11-20T10:43:52;44.60;;;23.27;;
3293;SDS011;1659;51.470;6.770;2022-11-20T10:46:26;45.87;;;23.60;;
3293;SDS011;1659;51.470;6.770;2022-11-20T10:49:02;57.97;;;26.23;;
3293;SDS011;1659;51.470;6.770;2022-11-20T10:51:33;44.20;;;23.00;;
3293;SDS011;1659;51.470;6.770;2022-11-20T10:54:10;38.50;;;22.00;;
3293;SDS011;1659;51.470;6.770;2022-11-20T10:56:45;36.30;;;21.23;;
3293;SDS011;1659;51.470;6.770;2022-11-20T10:59:31;38.83;;;22.03;;
3293;SDS011;1659;51.470;6.770;2022-11-20T11:02:19;39.00;;;21.90;;
3293;SDS011;1659;51.470;6.770;2022-11-20T11:04:49;38.20;;;21.57;;
3293;SDS011;1659;51.470;6.770;2022-11-20T11:07:17;49.20;;;23.07;;
3293;SDS011;1659;51.470;6.770;2022-11-20T11:09:49;41.67;;;22.23;;
3293;SDS011;1659;51.470;6.770;2022-11-20T11:12:17;37.13;;;22.70;;
3293;SDS011;1659;51.470;6.770;2022-11-20T11:14:45;43.30;;;22.20;;
3293;SDS011;1659;51.470;6.770;2022-11-20T11:17:22;43.40;;;22.33;;
3293;SDS011;1659;51.470;6.770;2022-11-20T11:19:59;38.93;;;23.43;;
3293;SDS011;1659;51.470;6.770;2022-11-20T11:22:28;42.03;;;22.17;;
3293;SDS011;1659;51.470;6.770;2022-11-20T11:24:56;41.87;;;22.63;;
3293;SDS011;1659;51.470;6.770;2022-11-20T11:27:22;40.53;;;22.37;;
3293;SDS011;1659;51.470;6.770;2022-11-20T11:29:49;43.83;;;21.30;;
3293;SDS011;1659;51.470;6.770;2022-11-20T11:32:17;40.40;;;21.40;;
3293;SDS011;1659;51.470;6.770;2022-11-20T11:34:57;41.00;;;21.23;;
3293;SDS011;1659;51.470;6.770;2022-11-20T11:37:25;40.07;;;22.20;;
3293;SDS011;1659;51.470;6.770;2022-11-20T11:40:00;40.70;;;21.60;;
3293;SDS011;1659;51.470;6.770;2022-11-20T11:42:27;45.63;;;19.87;;
3293;SDS011;1659;51.470;6.770;2022-11-20T11:44:54;40.20;;;20.90;;
3293;SDS011;1659;51.470;6.770;2022-11-20T11:47:32;37.00;;;20.80;;
3293;SDS011;1659;51.470;6.770;2022-11-20T11:50:07;36.33;;;19.13;;
3293;SDS011;1659;51.470;6.770;2022-11-20T11:52:42;41.30;;;21.50;;
3293;SDS011;1659;51.470;6.770;2022-11-20T11:55:14;38.20;;;20.33;;
3293;SDS011;1659;51.470;6.770;2022-11-20T11:57:45;35.83;;;19.83;;
3293;SDS011;1659;51.470;6.770;2022-11-20T12:00:17;36.80;;;20.53;;
3293;SDS011;1659;51.470;6.770;2022-11-20T12:02:49;40.13;;;19.80;;
3293;SDS011;1659;51.470;6.770;2022-11-20T12:05:25;39.53;;;22.20;;
3293;SDS011;1659;51.470;6.770;2022-11-20T12:07:55;46.03;;;21.07;;
3293;SDS011;1659;51.470;6.770;2022-11-20T12:10:33;38.17;;;16.10;;
3293;SDS011;1659;51.470;6.770;2022-11-20T12:13:10;44.03;;;21.23;;
3293;SDS011;1659;51.470;6.770;2022-11-20T12:15:47;38.60;;;19.93;;
3293;SDS011;1659;51.470;6.770;2022-11-20T12:18:15;39.60;;;20.00;;
3293;SDS011;1659;51.470;6.770;2022-11-20T12:20:48;35.20;;;19.77;;
3293;SDS011;1659;51.470;6.770;2022-11-20T12:23:28;37.77;;;18.27;;
3293;SDS011;1659;51.470;6.770;2022-11-20T12:26:03;44.40;;;20.33;;
3293;SDS011;1659;51.470;6.770;2022-11-20T12:28:41;37.30;;;19.33;;
3293;SDS011;1659;51.470;6.770;2022-11-20T12:31:20;40.33;;;19.57;;
3293;SDS011;1659;51.470;6.770;2022-11-20T12:34:07;36.70;;;19.87;;
3293;SDS011;1659;51.470;6.770;2022-11-20T12:36:48;35.17;;;19.10;;
3293;SDS011;1659;51.470;6.770;2022-11-20T12:39:31;35.80;;;19.77;;
3293;SDS011;1659;51.470;6.770;2022-11-20T12:45:21;39.23;;;19.70;;
3293;SDS011;1659;51.470;6.770;2022-11-20T12:48:21;39.23;;;19.40;;
3293;SDS011;1659;51.470;6.770;2022-11-20T12:51:06;38.57;;;18.60;;
3293;SDS011;1659;51.470;6.770;2022-11-20T12:54:08;37.93;;;19.27;;
3293;SDS011;1659;51.470;6.770;2022-11-20T12:57:04;37.17;;;19.47;;
3293;SDS011;1659;51.470;6.770;2022-11-20T12:59:54;40.17;;;20.60;;
3293;SDS011;1659;51.470;6.770;2022-11-20T13:02:30;44.63;;;20.13;;
3293;SDS011;1659;51.470;6.770;2022-11-20T13:05:14;37.83;;;18.77;;
3293;SDS011;1659;51.470;6.770;2022-11-20T13:07:45;42.20;;;18.20;;
3293;SDS011;1659;51.470;6.770;2022-11-20T13:10:16;44.83;;;21.57;;
3293;SDS011;1659;51.470;6.770;2022-11-20T13:12:49;41.97;;;20.17;;
3293;SDS011;1659;51.470;6.770;2022-11-20T13:15:23;32.10;;;18.67;;
3293;SDS011;1659;51.470;6.770;2022-11-20T13:18:06;38.80;;;19.13;;
3293;SDS011;1659;51.470;6.770;2022-11-20T13:20:36;39.50;;;19.40;;
3293;SDS011;1659;51.470;6.770;2022-11-20T13:23:08;35.10;;;17.90;;
3293;SDS011;1659;51.470;6.770;2022-11-20T13:25:37;42.67;;;18.87;;
3293;SDS011;1659;51.470;6.770;2022-11-20T13:28:05;37.83;;;18.67;;
3293;SDS011;1659;51.470;6.770;2022-11-20T13:30:53;38.60;;;18.70;;
3293;SDS011;1659;51.470;6.770;2022-11-20T13:33:22;42.53;;;19.93;;
3293;SDS011;1659;51.470;6.770;2022-11-20T13:35:55;38.57;;;20.10;;
3293;SDS011;1659;51.470;6.770;2022-11-20T13:38:23;33.70;;;16.73;;
3293;SDS011;1659;51.470;6.770;2022-11-20T13:40:52;39.00;;;19.23;;
3293;SDS011;1659;51.470;6.770;2022-11-20T13:43:22;34.30;;;18.60;;
3293;SDS011;1659;51.470;6.770;2022-11-20T13:45:54;43.87;;;19.77;;
3293;SDS011;1659;51.470;6.770;2022-11-20T13:48:23;35.37;;;18.30;;
3293;SDS011;1659;51.470;6.770;2022-11-20T13:50:57;42.17;;;19.33;;
3293;SDS011;1659;51.470;6.770;2022-11-20T13:53:36;39.90;;;21.07;;
3293;SDS011;1659;51.470;6.770;2022-11-20T13:56:17;36.30;;;20.73;;
3293;SDS011;1659;51.470;6.770;2022-11-20T13:58:53;42.73;;;20.73;;
3293;SDS011;1659;51.470;6.770;2022-11-20T14:01:29;40.77;;;19.83;;
3293;SDS011;1659;51.470;6.770;2022-11-20T14:03:57;36.83;;;19.67;;
3293;SDS011;1659;51.470;6.770;2022-11-20T14:06:25;45.43;;;21.47;;
3293;SDS011;1659;51.470;6.770;2022-11-20T14:08:53;44.60;;;20.10;;
3293;SDS011;1659;51.470;6.770;2022-11-20T14:11:22;40.97;;;21.90;;
3293;SDS011;1659;51.470;6.770;2022-11-20T14:13:51;45.17;;;21.70;;
3293;SDS011;1659;51.470;6.770;2022-11-20T14:16:20;41.13;;;21.03;;
3293;SDS011;1659;51.470;6.770;2022-11-20T14:18:46;41.30;;;20.57;;
3293;SDS011;1659;51.470;6.770;2022-11-20T14:21:20;102.30;;;40.93;;
3293;SDS011;1659;51.470;6.770;2022-11-20T14:23:48;47.30;;;23.37;;
3293;SDS011;1659;51.470;6.770;2022-11-20T14:26:15;50.93;;;22.60;;
3293;SDS011;1659;51.470;6.770;2022-11-20T14:28:47;50.80;;;23.73;;
3293;SDS011;1659;51.470;6.770;2022-11-20T14:31:17;48.07;;;23.77;;
3293;SDS011;1659;51.470;6.770;2022-11-20T14:33:48;45.53;;;23.00;;
3293;SDS011;1659;51.470;6.770;2022-11-20T14:36:16;50.73;;;22.67;;
3293;SDS011;1659;51.470;6.770;2022-11-20T14:38:44;43.03;;;22.53;;
3293;SDS011;1659;51.470;6.770;2022-11-20T14:41:16;50.53;;;22.63;;
3293;SDS011;1659;51.470;6.770;2022-11-20T14:43:45;52.17;;;24.30;;
3293;SDS011;1659;51.470;6.770;2022-11-20T14:46:16;53.23;;;24.17;;
3293;SDS011;1659;51.470;6.770;2022-11-20T14:48:44;51.30;;;23.80;;
3293;SDS011;1659;51.470;6.770;2022-11-20T14:51:22;54.63;;;25.20;;
3293;SDS011;1659;51.470;6.770;2022-11-20T14:53:53;54.93;;;25.80;;
3293;SDS011;1659;51.470;6.770;2022-11-20T14:56:21;46.13;;;23.50;;
3293;SDS011;1659;51.470;6.770;2022-11-20T14:58:56;52.67;;;23.37;;
3293;SDS011;1659;51.470;6.770;2022-11-20T15:01:27;45.50;;;24.07;;
3293;SDS011;1659;51.470;6.770;2022-11-20T15:04:01;51.23;;;25.07;;
3293;SDS011;1659;51.470;6.770;2022-11-20T15:06:32;52.63;;;25.40;;
3293;SDS011;1659;51.470;6.770;2022-11-20T15:08:59;55.60;;;26.03;;
3293;SDS011;1659;51.470;6.770;2022-11-20T15:11:27;52.57;;;25.77;;
3293;SDS011;1659;51.470;6.770;2022-11-20T15:13:57;56.90;;;27.10;;